sensor_id;sensor_type;location;lat;lon;timestamp;P1;durP1;ratioP1;P2;durP2;ratioP2
26702;SDS011;14316;51.074;3.704;2022-09-01T00:02:11;7.20;;;2.72;;
26702;SDS011;14316;51.074;3.704;2022-09-01T00:04:39;4.97;;;2.83;;
26702;SDS011;14316;51.074;3.704;2022-09-01T00:07:09;6.15;;;3.05;;
26702;SDS011;14316;51.074;3.704;2022-09-01T00:09:36;6.25;;;2.92;;
26702;SDS011;14316;51.074;3.704;2022-09-01T00:12:02;8.05;;;3.30;;
26702;SDS011;14316;51.074;3.704;2022-09-01T00:14:32;5.82;;;3.40;;
26702;SDS011;14316;51.074;3.704;2022-09-01T00:17:00;4.72;;;3.40;;
26702;SDS011;14316;51.074;3.704;2022-09-01T00:19:32;8.15;;;3.25;;
26702;SDS011;14316;51.074;3.704;2022-09-01T00:22:00;6.00;;;3.42;;
26702;SDS011;14316;51.074;3.704;2022-09-01T00:24:26;6.07;;;3.17;;
26702;SDS011;14316;51.074;3.704;2022-09-01T00:26:52;4.55;;;3.35;;
26702;SDS011;14316;51.074;3.704;2022-09-01T00:29:19;7.05;;;3.25;;
26702;SDS011;14316;51.074;3.704;2022-09-01T00:31:45;5.07;;;2.80;;
26702;SDS011;14316;51.074;3.704;2022-09-01T00:34:11;6.10;;;3.20;;
26702;SDS011;14316;51.074;3.704;2022-09-01T00:36:37;5.38;;;3.05;;
26702;SDS011;14316;51.074;3.704;2022-09-01T00:39:04;5.20;;;2.80;;
26702;SDS011;14316;51.074;3.704;2022-09-01T00:41:34;4.93;;;3.25;;
26702;SDS011;14316;51.074;3.704;2022-09-01T00:44:04;5.97;;;3.28;;
26702;SDS011;14316;51.074;3.704;2022-09-01T00:46:34;3.33;;;3.03;;
26702;SDS011;14316;51.074;3.704;2022-09-01T00:51:46;5.38;;;2.65;;
26702;SDS011;14316;51.074;3.704;2022-09-01T00:54:18;6.95;;;2.92;;
26702;SDS011;14316;51.074;3.704;2022-09-01T00:56:47;3.17;;;2.88;;
26702;SDS011;14316;51.074;3.704;2022-09-01T00:59:22;5.68;;;2.78;;
26702;SDS011;14316;51.074;3.704;2022-09-01T01:01:50;4.30;;;2.80;;
26702;SDS011;14316;51.074;3.704;2022-09-01T01:04:16;2.70;;;2.42;;
26702;SDS011;14316;51.074;3.704;2022-09-01T01:06:49;5.95;;;2.67;;
26702;SDS011;14316;51.074;3.704;2022-09-01T01:09:24;4.50;;;2.70;;
26702;SDS011;14316;51.074;3.704;2022-09-01T01:11:52;2.80;;;2.40;;
26702;SDS011;14316;51.074;3.704;2022-09-01T01:14:17;5.82;;;2.60;;
26702;SDS011;14316;51.074;3.704;2022-09-01T01:16:45;6.00;;;2.85;;
26702;SDS011;14316;51.074;3.704;2022-09-01T01:22:12;3.45;;;2.60;;
26702;SDS011;14316;51.074;3.704;2022-09-01T01:25:01;6.35;;;2.35;;
26702;SDS011;14316;51.074;3.704;2022-09-01T01:27:32;6.78;;;2.65;;
26702;SDS011;14316;51.074;3.704;2022-09-01T01:30:00;7.82;;;2.75;;
26702;SDS011;14316;51.074;3.704;2022-09-01T01:32:28;8.77;;;2.60;;
26702;SDS011;14316;51.074;3.704;2022-09-01T01:34:54;5.32;;;2.60;;
26702;SDS011;14316;51.074;3.704;2022-09-01T01:37:20;6.93;;;2.33;;
26702;SDS011;14316;51.074;3.704;2022-09-01T01:39:49;3.25;;;2.30;;
26702;SDS011;14316;51.074;3.704;2022-09-01T01:42:15;6.93;;;2.65;;
26702;SDS011;14316;51.074;3.704;2022-09-01T01:44:42;4.38;;;2.60;;
26702;SDS011;14316;51.074;3.704;2022-09-01T01:47:10;4.63;;;2.38;;
26702;SDS011;14316;51.074;3.704;2022-09-01T01:49:37;4.15;;;2.67;;
26702;SDS011;14316;51.074;3.704;2022-09-01T01:52:08;7.40;;;2.40;;
26702;SDS011;14316;51.074;3.704;2022-09-01T01:54:41;6.55;;;3.25;;
26702;SDS011;14316;51.074;3.704;2022-09-01T01:57:10;7.53;;;2.25;;
26702;SDS011;14316;51.074;3.704;2022-09-01T01:59:42;6.90;;;2.20;;
26702;SDS011;14316;51.074;3.704;2022-09-01T02:02:08;5.68;;;2.33;;
26702;SDS011;14316;51.074;3.704;2022-09-01T02:04:37;3.45;;;2.58;;
26702;SDS011;14316;51.074;3.704;2022-09-01T02:07:04;5.53;;;2.45;;
26702;SDS011;14316;51.074;3.704;2022-09-01T02:09:34;4.53;;;2.38;;
26702;SDS011;14316;51.074;3.704;2022-09-01T02:12:00;5.10;;;2.47;;
26702;SDS011;14316;51.074;3.704;2022-09-01T02:14:26;5.28;;;2.20;;
26702;SDS011;14316;51.074;3.704;2022-09-01T02:16:52;6.20;;;2.85;;
26702;SDS011;14316;51.074;3.704;2022-09-01T02:19:19;3.80;;;2.47;;
26702;SDS011;14316;51.074;3.704;2022-09-01T02:21:45;6.30;;;2.30;;
26702;SDS011;14316;51.074;3.704;2022-09-01T02:24:13;4.45;;;2.28;;
26702;SDS011;14316;51.074;3.704;2022-09-01T02:26:40;5.38;;;2.50;;
26702;SDS011;14316;51.074;3.704;2022-09-01T02:29:11;7.93;;;2.67;;
26702;SDS011;14316;51.074;3.704;2022-09-01T02:31:43;4.80;;;2.10;;
26702;SDS011;14316;51.074;3.704;2022-09-01T02:34:10;4.05;;;2.35;;
26702;SDS011;14316;51.074;3.704;2022-09-01T02:36:38;9.15;;;2.95;;
26702;SDS011;14316;51.074;3.704;2022-09-01T02:39:08;4.60;;;2.05;;
26702;SDS011;14316;51.074;3.704;2022-09-01T02:41:35;5.40;;;2.30;;
26702;SDS011;14316;51.074;3.704;2022-09-01T02:44:02;9.10;;;2.40;;
26702;SDS011;14316;51.074;3.704;2022-09-01T02:46:35;5.70;;;2.33;;
26702;SDS011;14316;51.074;3.704;2022-09-01T02:49:11;5.78;;;2.38;;
26702;SDS011;14316;51.074;3.704;2022-09-01T02:51:45;3.97;;;2.40;;
26702;SDS011;14316;51.074;3.704;2022-09-01T02:54:14;3.47;;;2.28;;
26702;SDS011;14316;51.074;3.704;2022-09-01T02:56:43;9.40;;;2.50;;
26702;SDS011;14316;51.074;3.704;2022-09-01T02:59:18;4.07;;;2.53;;
26702;SDS011;14316;51.074;3.704;2022-09-01T03:01:46;4.45;;;2.65;;
26702;SDS011;14316;51.074;3.704;2022-09-01T03:04:16;4.38;;;2.15;;
26702;SDS011;14316;51.074;3.704;2022-09-01T03:06:43;2.80;;;2.33;;
26702;SDS011;14316;51.074;3.704;2022-09-01T03:09:10;7.78;;;2.25;;
26702;SDS011;14316;51.074;3.704;2022-09-01T03:11:39;5.55;;;2.30;;
26702;SDS011;14316;51.074;3.704;2022-09-01T03:14:07;5.70;;;2.65;;
26702;SDS011;14316;51.074;3.704;2022-09-01T03:16:34;4.80;;;2.40;;
26702;SDS011;14316;51.074;3.704;2022-09-01T03:19:02;5.25;;;2.42;;
26702;SDS011;14316;51.074;3.704;2022-09-01T03:21:31;3.95;;;2.47;;
26702;SDS011;14316;51.074;3.704;2022-09-01T03:23:57;4.50;;;2.65;;
26702;SDS011;14316;51.074;3.704;2022-09-01T03:26:26;3.75;;;2.50;;
26702;SDS011;14316;51.074;3.704;2022-09-01T03:28:52;6.10;;;2.50;;
26702;SDS011;14316;51.074;3.704;2022-09-01T03:31:18;4.68;;;2.92;;
26702;SDS011;14316;51.074;3.704;2022-09-01T03:33:44;4.22;;;2.38;;
26702;SDS011;14316;51.074;3.704;2022-09-01T03:36:10;3.38;;;2.35;;
26702;SDS011;14316;51.074;3.704;2022-09-01T03:38:46;5.57;;;2.60;;
26702;SDS011;14316;51.074;3.704;2022-09-01T03:41:13;4.18;;;2.50;;
26702;SDS011;14316;51.074;3.704;2022-09-01T03:43:42;3.17;;;2.70;;
26702;SDS011;14316;51.074;3.704;2022-09-01T03:46:08;4.32;;;2.95;;
26702;SDS011;14316;51.074;3.704;2022-09-01T03:48:40;6.22;;;2.80;;
26702;SDS011;14316;51.074;3.704;2022-09-01T03:51:07;4.88;;;3.05;;
26702;SDS011;14316;51.074;3.704;2022-09-01T03:53:34;4.85;;;2.83;;
26702;SDS011;14316;51.074;3.704;2022-09-01T03:56:04;6.57;;;4.55;;
26702;SDS011;14316;51.074;3.704;2022-09-01T03:58:31;3.75;;;2.65;;
26702;SDS011;14316;51.074;3.704;2022-09-01T04:00:57;5.18;;;2.80;;
26702;SDS011;14316;51.074;3.704;2022-09-01T04:03:27;6.50;;;3.15;;
26702;SDS011;14316;51.074;3.704;2022-09-01T04:05:56;6.97;;;3.03;;
26702;SDS011;14316;51.074;3.704;2022-09-01T04:08:23;7.10;;;3.25;;
26702;SDS011;14316;51.074;3.704;2022-09-01T04:10:53;4.07;;;3.05;;
26702;SDS011;14316;51.074;3.704;2022-09-01T04:13:20;6.22;;;3.28;;
26702;SDS011;14316;51.074;3.704;2022-09-01T04:15:48;6.72;;;2.95;;
26702;SDS011;14316;51.074;3.704;2022-09-01T04:18:14;5.15;;;3.00;;
26702;SDS011;14316;51.074;3.704;2022-09-01T04:20:51;4.90;;;3.10;;
26702;SDS011;14316;51.074;3.704;2022-09-01T04:23:22;6.95;;;3.20;;
26702;SDS011;14316;51.074;3.704;2022-09-01T04:26:01;3.65;;;3.28;;
26702;SDS011;14316;51.074;3.704;2022-09-01T04:28:34;5.70;;;3.30;;
26702;SDS011;14316;51.074;3.704;2022-09-01T04:31:03;10.95;;;3.75;;
26702;SDS011;14316;51.074;3.704;2022-09-01T04:33:33;7.00;;;3.90;;
26702;SDS011;14316;51.074;3.704;2022-09-01T04:36:18;6.53;;;4.07;;
26702;SDS011;14316;51.074;3.704;2022-09-01T04:38:52;4.10;;;3.17;;
26702;SDS011;14316;51.074;3.704;2022-09-01T04:41:24;8.00;;;3.70;;
26702;SDS011;14316;51.074;3.704;2022-09-01T04:43:55;9.10;;;3.60;;
26702;SDS011;14316;51.074;3.704;2022-09-01T04:46:27;7.47;;;3.53;;
26702;SDS011;14316;51.074;3.704;2022-09-01T04:48:55;7.68;;;3.83;;
26702;SDS011;14316;51.074;3.704;2022-09-01T04:51:21;7.05;;;3.65;;
26702;SDS011;14316;51.074;3.704;2022-09-01T04:53:55;7.68;;;3.60;;
26702;SDS011;14316;51.074;3.704;2022-09-01T04:56:21;6.97;;;4.72;;
26702;SDS011;14316;51.074;3.704;2022-09-01T04:58:49;7.45;;;4.00;;
26702;SDS011;14316;51.074;3.704;2022-09-01T05:01:18;8.55;;;4.20;;
26702;SDS011;14316;51.074;3.704;2022-09-01T05:03:51;6.65;;;4.30;;
26702;SDS011;14316;51.074;3.704;2022-09-01T05:06:26;9.32;;;4.07;;
26702;SDS011;14316;51.074;3.704;2022-09-01T05:08:53;10.95;;;4.07;;
26702;SDS011;14316;51.074;3.704;2022-09-01T05:11:21;8.18;;;4.07;;
26702;SDS011;14316;51.074;3.704;2022-09-01T05:13:48;4.32;;;3.92;;
26702;SDS011;14316;51.074;3.704;2022-09-01T05:16:18;11.63;;;4.30;;
26702;SDS011;14316;51.074;3.704;2022-09-01T05:18:47;7.13;;;4.05;;
26702;SDS011;14316;51.074;3.704;2022-09-01T05:21:14;8.32;;;4.38;;
26702;SDS011;14316;51.074;3.704;2022-09-01T05:23:42;12.40;;;6.07;;
26702;SDS011;14316;51.074;3.704;2022-09-01T05:26:13;9.98;;;4.55;;
26702;SDS011;14316;51.074;3.704;2022-09-01T05:28:45;8.73;;;4.10;;
26702;SDS011;14316;51.074;3.704;2022-09-01T05:31:14;8.07;;;4.20;;
26702;SDS011;14316;51.074;3.704;2022-09-01T05:33:44;9.27;;;4.30;;
26702;SDS011;14316;51.074;3.704;2022-09-01T05:36:12;7.38;;;4.45;;
26702;SDS011;14316;51.074;3.704;2022-09-01T05:38:41;11.52;;;4.57;;
26702;SDS011;14316;51.074;3.704;2022-09-01T05:41:09;9.48;;;5.05;;
26702;SDS011;14316;51.074;3.704;2022-09-01T05:43:39;9.32;;;4.93;;
26702;SDS011;14316;51.074;3.704;2022-09-01T05:46:23;11.07;;;5.20;;
26702;SDS011;14316;51.074;3.704;2022-09-01T05:48:51;9.63;;;4.88;;
26702;SDS011;14316;51.074;3.704;2022-09-01T05:51:22;12.50;;;5.60;;
26702;SDS011;14316;51.074;3.704;2022-09-01T05:53:54;10.82;;;5.55;;
26702;SDS011;14316;51.074;3.704;2022-09-01T05:56:23;10.60;;;4.55;;
26702;SDS011;14316;51.074;3.704;2022-09-01T05:58:51;7.90;;;5.03;;
26702;SDS011;14316;51.074;3.704;2022-09-01T06:01:22;10.45;;;4.82;;
26702;SDS011;14316;51.074;3.704;2022-09-01T06:03:55;7.13;;;5.22;;
26702;SDS011;14316;51.074;3.704;2022-09-01T06:06:29;7.07;;;4.97;;
26702;SDS011;14316;51.074;3.704;2022-09-01T06:09:02;9.35;;;5.95;;
26702;SDS011;14316;51.074;3.704;2022-09-01T06:11:29;6.38;;;5.38;;
26702;SDS011;14316;51.074;3.704;2022-09-01T06:13:57;8.85;;;5.30;;
26702;SDS011;14316;51.074;3.704;2022-09-01T06:16:24;9.25;;;5.43;;
26702;SDS011;14316;51.074;3.704;2022-09-01T06:18:51;12.77;;;5.10;;
26702;SDS011;14316;51.074;3.704;2022-09-01T06:21:18;10.55;;;5.78;;
26702;SDS011;14316;51.074;3.704;2022-09-01T06:23:45;10.02;;;5.93;;
26702;SDS011;14316;51.074;3.704;2022-09-01T06:26:25;7.45;;;5.90;;
26702;SDS011;14316;51.074;3.704;2022-09-01T06:28:57;9.68;;;5.75;;
26702;SDS011;14316;51.074;3.704;2022-09-01T06:31:28;11.00;;;6.07;;
26702;SDS011;14316;51.074;3.704;2022-09-01T06:34:02;10.77;;;6.40;;
26702;SDS011;14316;51.074;3.704;2022-09-01T06:36:29;13.13;;;5.75;;
26702;SDS011;14316;51.074;3.704;2022-09-01T06:39:01;10.83;;;6.73;;
26702;SDS011;14316;51.074;3.704;2022-09-01T06:41:27;11.52;;;6.32;;
26702;SDS011;14316;51.074;3.704;2022-09-01T06:43:55;11.07;;;6.03;;
26702;SDS011;14316;51.074;3.704;2022-09-01T06:46:22;8.57;;;6.40;;
26702;SDS011;14316;51.074;3.704;2022-09-01T06:48:53;11.52;;;6.20;;
26702;SDS011;14316;51.074;3.704;2022-09-01T06:51:23;14.13;;;6.68;;
26702;SDS011;14316;51.074;3.704;2022-09-01T06:53:52;15.55;;;6.80;;
26702;SDS011;14316;51.074;3.704;2022-09-01T06:56:23;10.82;;;6.90;;
26702;SDS011;14316;51.074;3.704;2022-09-01T07:01:23;8.23;;;6.18;;
26702;SDS011;14316;51.074;3.704;2022-09-01T07:03:52;10.55;;;6.50;;
26702;SDS011;14316;51.074;3.704;2022-09-01T07:06:21;8.27;;;6.32;;
26702;SDS011;14316;51.074;3.704;2022-09-01T07:08:51;9.82;;;7.00;;
26702;SDS011;14316;51.074;3.704;2022-09-01T07:11:22;11.73;;;6.70;;
26702;SDS011;14316;51.074;3.704;2022-09-01T07:13:53;11.43;;;6.80;;
26702;SDS011;14316;51.074;3.704;2022-09-01T07:16:22;13.37;;;7.40;;
26702;SDS011;14316;51.074;3.704;2022-09-01T07:18:51;10.85;;;7.20;;
26702;SDS011;14316;51.074;3.704;2022-09-01T07:21:20;11.07;;;7.63;;
26702;SDS011;14316;51.074;3.704;2022-09-01T07:23:50;11.40;;;7.43;;
26702;SDS011;14316;51.074;3.704;2022-09-01T07:26:16;11.23;;;8.10;;
26702;SDS011;14316;51.074;3.704;2022-09-01T07:28:46;12.05;;;7.57;;
26702;SDS011;14316;51.074;3.704;2022-09-01T07:31:30;10.43;;;7.87;;
26702;SDS011;14316;51.074;3.704;2022-09-01T07:34:01;11.48;;;7.60;;
26702;SDS011;14316;51.074;3.704;2022-09-01T07:36:29;13.80;;;7.45;;
26702;SDS011;14316;51.074;3.704;2022-09-01T07:38:57;10.68;;;8.15;;
26702;SDS011;14316;51.074;3.704;2022-09-01T07:41:25;11.00;;;7.78;;
26702;SDS011;14316;51.074;3.704;2022-09-01T07:43:52;12.32;;;7.38;;
26702;SDS011;14316;51.074;3.704;2022-09-01T07:46:21;11.93;;;8.10;;
26702;SDS011;14316;51.074;3.704;2022-09-01T07:48:48;12.68;;;7.90;;
26702;SDS011;14316;51.074;3.704;2022-09-01T07:51:16;12.63;;;8.20;;
26702;SDS011;14316;51.074;3.704;2022-09-01T07:53:44;12.90;;;8.13;;
26702;SDS011;14316;51.074;3.704;2022-09-01T07:56:14;10.32;;;8.10;;
26702;SDS011;14316;51.074;3.704;2022-09-01T07:58:43;8.45;;;7.53;;
26702;SDS011;14316;51.074;3.704;2022-09-01T08:01:13;12.45;;;7.60;;
26702;SDS011;14316;51.074;3.704;2022-09-01T08:03:42;11.80;;;7.70;;
26702;SDS011;14316;51.074;3.704;2022-09-01T08:06:11;12.52;;;8.20;;
26702;SDS011;14316;51.074;3.704;2022-09-01T08:08:47;10.05;;;8.18;;
26702;SDS011;14316;51.074;3.704;2022-09-01T08:11:15;11.63;;;8.30;;
26702;SDS011;14316;51.074;3.704;2022-09-01T08:13:43;11.93;;;8.60;;
26702;SDS011;14316;51.074;3.704;2022-09-01T08:16:08;11.43;;;7.78;;
26702;SDS011;14316;51.074;3.704;2022-09-01T08:18:35;12.75;;;8.07;;
26702;SDS011;14316;51.074;3.704;2022-09-01T08:21:04;12.15;;;7.97;;
26702;SDS011;14316;51.074;3.704;2022-09-01T08:23:35;12.40;;;8.45;;
26702;SDS011;14316;51.074;3.704;2022-09-01T08:26:05;10.30;;;8.02;;
26702;SDS011;14316;51.074;3.704;2022-09-01T08:28:33;10.93;;;8.23;;
26702;SDS011;14316;51.074;3.704;2022-09-01T08:31:04;13.73;;;8.27;;
26702;SDS011;14316;51.074;3.704;2022-09-01T08:33:34;11.35;;;7.47;;
26702;SDS011;14316;51.074;3.704;2022-09-01T08:36:02;12.32;;;8.27;;
26702;SDS011;14316;51.074;3.704;2022-09-01T08:38:28;11.57;;;7.93;;
26702;SDS011;14316;51.074;3.704;2022-09-01T08:40:55;9.73;;;6.82;;
26702;SDS011;14316;51.074;3.704;2022-09-01T08:48:24;7.93;;;7.10;;
26702;SDS011;14316;51.074;3.704;2022-09-01T08:51:02;11.55;;;6.40;;
26702;SDS011;14316;51.074;3.704;2022-09-01T08:53:45;11.32;;;6.53;;
26702;SDS011;14316;51.074;3.704;2022-09-01T08:56:18;9.65;;;6.45;;
26702;SDS011;14316;51.074;3.704;2022-09-01T08:58:44;7.72;;;6.50;;
26702;SDS011;14316;51.074;3.704;2022-09-01T09:01:21;7.53;;;6.68;;
26702;SDS011;14316;51.074;3.704;2022-09-01T09:06:36;11.75;;;5.57;;
26702;SDS011;14316;51.074;3.704;2022-09-01T09:09:08;11.38;;;6.32;;
26702;SDS011;14316;51.074;3.704;2022-09-01T09:16:48;6.57;;;5.88;;
26702;SDS011;14316;51.074;3.704;2022-09-01T09:21:53;11.00;;;5.72;;
26702;SDS011;14316;51.074;3.704;2022-09-01T09:26:53;6.32;;;5.13;;
26702;SDS011;14316;51.074;3.704;2022-09-01T09:29:21;6.38;;;5.38;;
26702;SDS011;14316;51.074;3.704;2022-09-01T09:31:47;6.55;;;5.35;;
26702;SDS011;14316;51.074;3.704;2022-09-01T09:42:29;7.13;;;5.47;;
26702;SDS011;14316;51.074;3.704;2022-09-01T09:44:55;7.75;;;5.22;;
26702;SDS011;14316;51.074;3.704;2022-09-01T09:50:15;10.02;;;5.05;;
26702;SDS011;14316;51.074;3.704;2022-09-01T09:53:10;8.05;;;4.93;;
26702;SDS011;14316;51.074;3.704;2022-09-01T09:55:52;5.55;;;4.45;;
26702;SDS011;14316;51.074;3.704;2022-09-01T09:58:21;5.07;;;4.57;;
26702;SDS011;14316;51.074;3.704;2022-09-01T10:01:04;8.65;;;4.50;;
26702;SDS011;14316;51.074;3.704;2022-09-01T10:03:46;5.13;;;4.60;;
26702;SDS011;14316;51.074;3.704;2022-09-01T10:06:38;7.80;;;4.03;;
26702;SDS011;14316;51.074;3.704;2022-09-01T10:09:16;8.80;;;4.30;;
26702;SDS011;14316;51.074;3.704;2022-09-01T10:11:53;7.47;;;3.97;;
26702;SDS011;14316;51.074;3.704;2022-09-01T10:14:22;4.75;;;4.30;;
26702;SDS011;14316;51.074;3.704;2022-09-01T10:16:55;6.63;;;4.95;;
26702;SDS011;14316;51.074;3.704;2022-09-01T10:19:28;7.28;;;3.88;;
26702;SDS011;14316;51.074;3.704;2022-09-01T10:21:57;5.88;;;3.78;;
26702;SDS011;14316;51.074;3.704;2022-09-01T10:24:34;4.55;;;3.70;;
26702;SDS011;14316;51.074;3.704;2022-09-01T10:27:15;5.65;;;3.70;;
26702;SDS011;14316;51.074;3.704;2022-09-01T10:29:44;4.38;;;3.75;;
26702;SDS011;14316;51.074;3.704;2022-09-01T10:32:15;6.32;;;3.72;;
26702;SDS011;14316;51.074;3.704;2022-09-01T10:34:45;7.07;;;3.90;;
26702;SDS011;14316;51.074;3.704;2022-09-01T10:37:13;5.40;;;3.80;;
26702;SDS011;14316;51.074;3.704;2022-09-01T10:42:33;4.53;;;3.22;;
26702;SDS011;14316;51.074;3.704;2022-09-01T10:44:59;5.78;;;3.83;;
26702;SDS011;14316;51.074;3.704;2022-09-01T10:47:27;4.38;;;3.33;;
26702;SDS011;14316;51.074;3.704;2022-09-01T10:55:18;4.25;;;2.95;;
26702;SDS011;14316;51.074;3.704;2022-09-01T11:00:43;6.15;;;3.15;;
26702;SDS011;14316;51.074;3.704;2022-09-01T11:10:54;7.10;;;3.45;;
26702;SDS011;14316;51.074;3.704;2022-09-01T11:21:45;4.07;;;2.80;;
26702;SDS011;14316;51.074;3.704;2022-09-01T11:27:07;5.75;;;3.60;;
26702;SDS011;14316;51.074;3.704;2022-09-01T11:29:54;5.45;;;2.60;;
26702;SDS011;14316;51.074;3.704;2022-09-01T11:32:24;4.53;;;2.65;;
26702;SDS011;14316;51.074;3.704;2022-09-01T11:34:57;3.83;;;2.60;;
26702;SDS011;14316;51.074;3.704;2022-09-01T11:37:26;5.55;;;2.85;;
26702;SDS011;14316;51.074;3.704;2022-09-01T11:39:53;4.13;;;3.05;;
26702;SDS011;14316;51.074;3.704;2022-09-01T11:42:26;4.53;;;2.60;;
26702;SDS011;14316;51.074;3.704;2022-09-01T11:45:04;4.60;;;2.70;;
26702;SDS011;14316;51.074;3.704;2022-09-01T11:47:39;5.75;;;2.97;;
26702;SDS011;14316;51.074;3.704;2022-09-01T11:55:46;3.75;;;2.60;;
26702;SDS011;14316;51.074;3.704;2022-09-01T12:00:52;7.80;;;2.97;;
26702;SDS011;14316;51.074;3.704;2022-09-01T12:03:26;5.55;;;2.90;;
26702;SDS011;14316;51.074;3.704;2022-09-01T12:06:03;4.93;;;2.70;;
26702;SDS011;14316;51.074;3.704;2022-09-01T12:08:34;5.53;;;2.33;;
26702;SDS011;14316;51.074;3.704;2022-09-01T12:11:07;4.97;;;2.40;;
26702;SDS011;14316;51.074;3.704;2022-09-01T12:13:53;2.90;;;2.10;;
26702;SDS011;14316;51.074;3.704;2022-09-01T12:16:20;4.53;;;2.10;;
26702;SDS011;14316;51.074;3.704;2022-09-01T12:18:47;4.47;;;2.40;;
26702;SDS011;14316;51.074;3.704;2022-09-01T12:21:22;4.07;;;2.10;;
26702;SDS011;14316;51.074;3.704;2022-09-01T12:23:50;3.97;;;2.20;;
26702;SDS011;14316;51.074;3.704;2022-09-01T12:26:18;3.70;;;2.08;;
26702;SDS011;14316;51.074;3.704;2022-09-01T12:28:49;4.72;;;1.95;;
26702;SDS011;14316;51.074;3.704;2022-09-01T12:31:17;3.45;;;2.10;;
26702;SDS011;14316;51.074;3.704;2022-09-01T12:33:45;4.45;;;2.10;;
26702;SDS011;14316;51.074;3.704;2022-09-01T12:36:13;3.65;;;2.05;;
26702;SDS011;14316;51.074;3.704;2022-09-01T12:38:41;2.60;;;2.10;;
26702;SDS011;14316;51.074;3.704;2022-09-01T12:44:24;2.10;;;1.85;;
26702;SDS011;14316;51.074;3.704;2022-09-01T12:46:54;4.53;;;2.05;;
26702;SDS011;14316;51.074;3.704;2022-09-01T12:49:24;1.90;;;1.80;;
26702;SDS011;14316;51.074;3.704;2022-09-01T12:54:50;2.63;;;1.80;;
26702;SDS011;14316;51.074;3.704;2022-09-01T12:57:28;2.10;;;1.90;;
26702;SDS011;14316;51.074;3.704;2022-09-01T13:00:55;3.17;;;2.03;;
26702;SDS011;14316;51.074;3.704;2022-09-01T13:03:04;3.35;;;1.50;;
26702;SDS011;14316;51.074;3.704;2022-09-01T13:05:39;4.15;;;1.95;;
26702;SDS011;14316;51.074;3.704;2022-09-01T13:08:13;2.28;;;1.77;;
26702;SDS011;14316;51.074;3.704;2022-09-01T13:10:54;1.77;;;1.55;;
26702;SDS011;14316;51.074;3.704;2022-09-01T13:13:23;3.63;;;2.00;;
26702;SDS011;14316;51.074;3.704;2022-09-01T13:15:52;5.15;;;2.05;;
26702;SDS011;14316;51.074;3.704;2022-09-01T13:18:20;3.50;;;2.03;;
26702;SDS011;14316;51.074;3.704;2022-09-01T13:20:47;5.13;;;2.22;;
26702;SDS011;14316;51.074;3.704;2022-09-01T13:23:14;5.78;;;2.60;;
26702;SDS011;14316;51.074;3.704;2022-09-01T13:25:41;4.18;;;2.10;;
26702;SDS011;14316;51.074;3.704;2022-09-01T13:28:10;4.53;;;2.40;;
26702;SDS011;14316;51.074;3.704;2022-09-01T13:30:37;5.53;;;2.22;;
26702;SDS011;14316;51.074;3.704;2022-09-01T13:33:04;2.50;;;1.90;;
26702;SDS011;14316;51.074;3.704;2022-09-01T13:35:30;3.17;;;2.38;;
26702;SDS011;14316;51.074;3.704;2022-09-01T13:37:59;3.85;;;2.10;;
26702;SDS011;14316;51.074;3.704;2022-09-01T13:40:26;3.97;;;2.63;;
26702;SDS011;14316;51.074;3.704;2022-09-01T13:42:51;2.42;;;2.22;;
26702;SDS011;14316;51.074;3.704;2022-09-01T13:45:18;3.72;;;2.53;;
26702;SDS011;14316;51.074;3.704;2022-09-01T13:47:46;3.30;;;2.30;;
26702;SDS011;14316;51.074;3.704;2022-09-01T13:50:15;3.92;;;2.38;;
26702;SDS011;14316;51.074;3.704;2022-09-01T13:52:44;3.97;;;2.08;;
26702;SDS011;14316;51.074;3.704;2022-09-01T13:55:19;5.05;;;2.10;;
26702;SDS011;14316;51.074;3.704;2022-09-01T13:57:50;2.85;;;2.08;;
26702;SDS011;14316;51.074;3.704;2022-09-01T14:00:18;8.52;;;2.40;;
26702;SDS011;14316;51.074;3.704;2022-09-01T14:02:51;6.30;;;2.40;;
26702;SDS011;14316;51.074;3.704;2022-09-01T14:05:23;3.80;;;2.20;;
26702;SDS011;14316;51.074;3.704;2022-09-01T14:07:50;3.28;;;1.98;;
26702;SDS011;14316;51.074;3.704;2022-09-01T14:10:17;3.67;;;2.10;;
26702;SDS011;14316;51.074;3.704;2022-09-01T14:12:44;6.63;;;2.20;;
26702;SDS011;14316;51.074;3.704;2022-09-01T14:15:10;5.07;;;1.90;;
26702;SDS011;14316;51.074;3.704;2022-09-01T14:17:37;3.70;;;1.80;;
26702;SDS011;14316;51.074;3.704;2022-09-01T14:20:04;4.38;;;2.10;;
26702;SDS011;14316;51.074;3.704;2022-09-01T14:22:38;3.20;;;2.13;;
26702;SDS011;14316;51.074;3.704;2022-09-01T14:25:05;3.20;;;2.00;;
26702;SDS011;14316;51.074;3.704;2022-09-01T14:27:34;2.63;;;2.20;;
26702;SDS011;14316;51.074;3.704;2022-09-01T14:30:00;5.65;;;2.78;;
26702;SDS011;14316;51.074;3.704;2022-09-01T14:32:26;4.60;;;2.80;;
26702;SDS011;14316;51.074;3.704;2022-09-01T14:34:52;5.43;;;2.28;;
26702;SDS011;14316;51.074;3.704;2022-09-01T14:37:18;2.97;;;2.00;;
26702;SDS011;14316;51.074;3.704;2022-09-01T14:39:49;3.38;;;1.92;;
26702;SDS011;14316;51.074;3.704;2022-09-01T14:42:16;3.20;;;1.90;;
26702;SDS011;14316;51.074;3.704;2022-09-01T14:44:53;2.15;;;1.90;;
26702;SDS011;14316;51.074;3.704;2022-09-01T14:47:20;4.97;;;2.40;;
26702;SDS011;14316;51.074;3.704;2022-09-01T14:49:48;4.07;;;2.22;;
26702;SDS011;14316;51.074;3.704;2022-09-01T14:52:14;3.47;;;2.53;;
26702;SDS011;14316;51.074;3.704;2022-09-01T14:54:46;3.95;;;2.38;;
26702;SDS011;14316;51.074;3.704;2022-09-01T14:59:38;5.75;;;4.60;;
26702;SDS011;14316;51.074;3.704;2022-09-01T15:02:05;8.27;;;3.22;;
26702;SDS011;14316;51.074;3.704;2022-09-01T15:04:33;4.68;;;2.85;;
26702;SDS011;14316;51.074;3.704;2022-09-01T15:07:00;6.72;;;2.45;;
26702;SDS011;14316;51.074;3.704;2022-09-01T15:09:30;6.20;;;4.22;;
26702;SDS011;14316;51.074;3.704;2022-09-01T15:12:00;6.95;;;3.08;;
26702;SDS011;14316;51.074;3.704;2022-09-01T15:14:30;6.20;;;2.90;;
26702;SDS011;14316;51.074;3.704;2022-09-01T15:16:57;5.95;;;2.58;;
26702;SDS011;14316;51.074;3.704;2022-09-01T15:19:23;5.03;;;2.78;;
26702;SDS011;14316;51.074;3.704;2022-09-01T15:21:48;4.60;;;2.75;;
26702;SDS011;14316;51.074;3.704;2022-09-01T15:24:14;4.22;;;2.85;;
26702;SDS011;14316;51.074;3.704;2022-09-01T15:26:43;4.85;;;2.80;;
26702;SDS011;14316;51.074;3.704;2022-09-01T15:29:13;3.35;;;2.50;;
26702;SDS011;14316;51.074;3.704;2022-09-01T15:31:40;7.80;;;2.90;;
26702;SDS011;14316;51.074;3.704;2022-09-01T15:34:06;4.03;;;2.30;;
26702;SDS011;14316;51.074;3.704;2022-09-01T15:36:36;4.10;;;2.53;;
26702;SDS011;14316;51.074;3.704;2022-09-01T15:39:08;3.60;;;2.80;;
26702;SDS011;14316;51.074;3.704;2022-09-01T15:41:35;3.20;;;2.72;;
26702;SDS011;14316;51.074;3.704;2022-09-01T15:44:02;3.50;;;2.30;;
26702;SDS011;14316;51.074;3.704;2022-09-01T15:46:30;5.78;;;2.67;;
26702;SDS011;14316;51.074;3.704;2022-09-01T15:49:00;5.50;;;2.65;;
26702;SDS011;14316;51.074;3.704;2022-09-01T15:51:35;9.57;;;2.63;;
26702;SDS011;14316;51.074;3.704;2022-09-01T15:54:04;4.25;;;2.40;;
26702;SDS011;14316;51.074;3.704;2022-09-01T15:56:32;4.05;;;2.40;;
26702;SDS011;14316;51.074;3.704;2022-09-01T15:58:58;6.43;;;2.30;;
26702;SDS011;14316;51.074;3.704;2022-09-01T16:01:25;6.07;;;2.70;;
26702;SDS011;14316;51.074;3.704;2022-09-01T16:03:54;5.63;;;2.40;;
26702;SDS011;14316;51.074;3.704;2022-09-01T16:06:20;3.75;;;2.90;;
26702;SDS011;14316;51.074;3.704;2022-09-01T16:08:47;5.93;;;2.75;;
26702;SDS011;14316;51.074;3.704;2022-09-01T16:11:14;4.25;;;2.70;;
26702;SDS011;14316;51.074;3.704;2022-09-01T16:13:40;4.20;;;2.42;;
26702;SDS011;14316;51.074;3.704;2022-09-01T16:24:01;3.55;;;2.60;;
26702;SDS011;14316;51.074;3.704;2022-09-01T16:26:32;5.00;;;3.10;;
26702;SDS011;14316;51.074;3.704;2022-09-01T16:28:59;5.40;;;3.10;;
26702;SDS011;14316;51.074;3.704;2022-09-01T16:31:35;5.75;;;3.20;;
26702;SDS011;14316;51.074;3.704;2022-09-01T16:34:12;4.95;;;2.78;;